Time;durP1;ratioP1;P1;durP2;ratioP2;P2;SDS_P1;SDS_P2;PMS_P1;PMS_P2;Temp;Humidity;BMP_temperature;BMP_pressure;BME280_temperature;BME280_humidity;BME280_pressure;Samples;Min_cycle;Max_cycle;Signal;HPM_P1;HPM_P2
2023/11/01 00:01:52;;;;;;;29.10;21.83;;;;;;;-145.63;64.30;39423.22;5018492;28;20101;-69
2023/11/01 00:04:17;;;;;;;30.35;22.35;;;;;;;-145.63;64.57;39376.28;5022445;28;20044;-68
2023/11/01 00:06:43;;;;;;;27.83;21.55;;;;;;;-145.63;65.42;39388.00;5010481;28;20038;-69
2023/11/01 00:09:09;;;;;;;29.42;21.73;;;;;;;-145.63;65.51;39395.84;5010327;28;20356;-67
2023/11/01 00:11:35;;;;;;;31.88;22.88;;;;;;;-145.63;65.24;39384.09;5012535;28;20029;-68
2023/11/01 00:14:00;;;;;;;32.45;22.45;;;;;;;-145.63;65.67;39397.78;5023713;28;20218;-68
2023/11/01 00:16:26;;;;;;;30.98;22.88;;;;;;;-145.63;65.64;39409.53;5012100;28;20049;-67
2023/11/01 00:18:52;;;;;;;30.20;22.65;;;;;;;-145.63;65.26;39370.41;5017228;28;20026;-68
2023/11/01 00:21:17;;;;;;;28.38;20.92;;;;;;;-145.63;65.77;39372.34;5024685;28;20037;-67
2023/11/01 00:23:43;;;;;;;29.73;21.75;;;;;;;-145.63;65.66;39378.22;5025981;28;20241;-68
2023/11/01 00:26:09;;;;;;;29.60;21.70;;;;;;;-145.63;65.95;39364.53;5026127;28;20029;-67
2023/11/01 00:28:34;;;;;;;26.20;20.85;;;;;;;-145.63;65.84;39370.41;5025787;28;20049;-68
2023/11/01 00:31:01;;;;;;;27.55;20.02;;;;;;;-145.63;66.07;39350.84;5024165;28;20252;-68
2023/11/01 00:33:26;;;;;;;31.65;21.13;;;;;;;-145.63;66.30;39376.28;5005313;28;20100;-68
2023/11/01 00:35:52;;;;;;;27.45;20.38;;;;;;;-145.63;66.13;39382.13;5021543;28;20029;-68
2023/11/01 00:38:21;;;;;;;24.77;19.67;;;;;;;-145.63;66.07;39366.50;5021848;28;20037;-68
2023/11/01 00:40:47;;;;;;;25.90;18.90;;;;;;;-145.63;65.87;39372.34;5019808;28;20117;-68
2023/11/01 00:43:13;;;;;;;28.30;20.35;;;;;;;-145.63;66.00;39364.53;5023562;28;20021;-68
2023/11/01 00:45:38;;;;;;;31.02;20.15;;;;;;;-145.63;65.88;39350.84;5005710;28;20023;-67
2023/11/01 00:48:05;;;;;;;26.02;19.65;;;;;;;-145.63;65.92;39391.91;5020668;28;20332;-67
2023/11/01 00:50:30;;;;;;;27.63;18.02;;;;;;;-145.63;66.36;39391.91;5023840;28;20057;-67
2023/11/01 00:52:56;;;;;;;24.95;19.00;;;;;;;-145.63;66.13;39339.13;5029514;28;20030;-68
2023/11/01 00:55:22;;;;;;;28.23;19.05;;;;;;;-145.63;66.28;39389.97;5022174;28;20224;-69
2023/11/01 00:57:48;;;;;;;27.13;18.65;;;;;;;-145.63;66.24;39378.22;5044764;28;20048;-68
2023/11/01 01:00:15;;;;;;;26.70;18.38;;;;;;;-145.63;66.45;39368.44;5007402;28;20050;-68
2023/11/01 01:02:41;;;;;;;26.05;18.38;;;;;;;-145.63;66.76;39384.09;5037130;28;20093;-68
2023/11/01 01:05:07;;;;;;;26.02;17.13;;;;;;;-145.63;66.44;39294.13;5035379;28;20030;-67
2023/11/01 01:07:33;;;;;;;25.23;18.05;;;;;;;-145.63;66.30;39374.31;5019366;28;20291;-67
2023/11/01 01:09:58;;;;;;;26.95;19.58;;;;;;;-145.63;66.12;39372.34;5005361;28;20030;-67
2023/11/01 01:12:24;;;;;;;23.27;17.83;;;;;;;-145.63;66.43;39370.41;5024462;28;20017;-67
2023/11/01 01:14:50;;;;;;;27.50;19.02;;;;;;;-145.63;66.17;39376.28;5010164;28;20302;-67
2023/11/01 01:17:15;;;;;;;26.45;18.65;;;;;;;-145.63;66.63;39380.19;5015534;28;20028;-68
2023/11/01 01:19:41;;;;;;;28.15;18.52;;;;;;;-145.63;66.47;39376.28;5023872;28;20048;-68
2023/11/01 01:22:07;;;;;;;26.10;19.40;;;;;;;-145.63;65.86;39391.91;5024617;28;20077;-68
2023/11/01 01:24:32;;;;;;;26.20;19.05;;;;;;;-145.63;66.19;39376.28;5008989;28;20045;-68
2023/11/01 01:26:58;;;;;;;27.67;18.58;;;;;;;-145.63;65.97;39366.50;5020107;28;20029;-68
2023/11/01 01:29:24;;;;;;;27.17;19.10;;;;;;;-145.63;65.94;38844.34;5013797;28;20070;-68
2023/11/01 01:31:50;;;;;;;23.80;17.10;;;;;;;-145.63;66.07;39227.63;5011551;28;20053;-68
2023/11/01 01:34:16;;;;;;;27.27;17.95;;;;;;;-145.63;65.96;39364.53;5023475;28;20032;-68
2023/11/01 01:36:41;;;;;;;28.83;17.77;;;;;;;-145.63;65.92;39370.41;5005362;28;20026;-68
2023/11/01 01:39:07;;;;;;;25.88;18.30;;;;;;;-145.63;66.01;39374.31;5022182;28;20029;-68
2023/11/01 01:41:33;;;;;;;28.20;16.23;;;;;;;-145.63;65.79;39366.50;5020043;28;20298;-68
2023/11/01 01:43:59;;;;;;;26.40;17.65;;;;;;;-145.63;65.81;39370.41;5024824;28;20040;-69
2023/11/01 01:46:28;;;;;;;24.63;18.27;;;;;;;-145.63;65.67;39327.38;5020655;28;20242;-68
2023/11/01 01:48:54;;;;;;;24.83;17.27;;;;;;;-145.63;65.71;39343.03;5012396;28;20101;-67
2023/11/01 01:51:20;;;;;;;21.05;16.23;;;;;;;-145.63;65.66;39485.78;5023045;28;20030;-69
2023/11/01 01:53:47;;;;;;;20.88;16.27;;;;;;;-145.63;65.92;39372.34;5018354;28;20029;-69
2023/11/01 01:56:14;;;;;;;25.05;17.23;;;;;;;-145.63;65.64;39374.31;5026623;28;20038;-69
2023/11/01 01:58:41;;;;;;;30.33;17.73;;;;;;;-145.63;65.64;39360.63;5021015;28;20030;-69
2023/11/01 02:01:08;;;;;;;24.13;17.33;;;;;;;-145.63;65.77;39358.66;5024343;28;20022;-68
2023/11/01 02:03:35;;;;;;;24.00;16.40;;;;;;;-145.63;65.82;39425.16;5023118;28;20057;-68
2023/11/01 02:06:02;;;;;;;21.75;16.58;;;;;;;-145.63;65.83;39370.41;5007392;28;20214;-68
2023/11/01 02:08:28;;;;;;;24.45;17.70;;;;;;;-145.63;65.71;39382.13;5016430;28;20289;-68
2023/11/01 02:10:55;;;;;;;31.75;20.77;;;;;;;-145.63;65.85;39370.41;5017976;28;20068;-67
2023/11/01 02:13:21;;;;;;;27.17;18.27;;;;;;;-145.63;65.69;38453.25;5005547;28;20014;-67
2023/11/01 02:15:48;;;;;;;24.65;17.95;;;;;;;-145.63;65.53;39303.91;5023844;28;20022;-69
2023/11/01 02:18:15;;;;;;;23.40;17.27;;;;;;;-145.63;65.52;39348.88;5005100;28;20417;-67
2023/11/01 02:21:04;;;;;;;21.08;15.73;;;;;;;-145.63;65.35;39370.41;5018702;28;20038;-67
2023/11/01 02:23:34;;;;;;;24.77;16.52;;;;;;;-145.63;65.66;39307.81;5023708;28;20180;-67
2023/11/01 02:26:01;;;;;;;19.13;15.30;;;;;;;-145.63;65.51;39380.19;5015714;28;20049;-68
2023/11/01 02:28:27;;;;;;;25.13;16.30;;;;;;;-145.63;64.79;39368.44;5006046;28;20036;-67
2023/11/01 02:30:53;;;;;;;23.02;16.25;;;;;;;-145.63;65.19;39358.66;5023890;28;20326;-68
2023/11/01 02:33:18;;;;;;;22.80;17.38;;;;;;;-145.63;64.99;39356.72;5006230;28;20045;-68
2023/11/01 02:35:44;;;;;;;24.77;16.98;;;;;;;-145.63;65.10;39354.75;5029480;28;20045;-68
2023/11/01 02:38:11;;;;;;;26.55;16.67;;;;;;;-145.63;65.20;39350.84;5033890;28;20226;-69
2023/11/01 02:40:37;;;;;;;21.20;16.23;;;;;;;-145.63;65.50;39341.06;5020889;28;20077;-68
2023/11/01 02:43:03;;;;;;;23.35;17.35;;;;;;;-145.63;65.38;39350.84;5023665;28;20022;-68
2023/11/01 02:45:30;;;;;;;25.48;16.88;;;;;;;-145.63;65.54;39350.84;5023810;28;20018;-67
2023/11/01 02:47:56;;;;;;;23.20;15.95;;;;;;;-145.63;65.18;39352.81;5009225;28;20077;-68
2023/11/01 02:50:22;;;;;;;22.67;16.30;;;;;;;-145.63;65.07;39380.19;5023621;28;20029;-67
2023/11/01 02:52:49;;;;;;;24.73;16.38;;;;;;;-145.63;65.17;39378.22;5017603;28;20034;-68
2023/11/01 02:55:16;;;;;;;22.60;16.80;;;;;;;-145.63;64.72;39358.66;5015229;28;20321;-68
2023/11/01 02:57:42;;;;;;;26.70;16.48;;;;;;;-145.63;65.08;39321.50;5022142;28;20210;-67
2023/11/01 03:00:18;;;;;;;22.10;15.73;;;;;;;-145.63;64.89;39372.34;5023273;28;20254;-68
2023/11/01 03:02:47;;;;;;;21.63;15.27;;;;;;;-145.63;64.82;38423.91;5023080;28;20096;-69
2023/11/01 03:05:14;;;;;;;25.15;16.77;;;;;;;-145.63;64.75;39356.72;5014345;28;20101;-69
2023/11/01 03:07:41;;;;;;;21.23;16.30;;;;;;;-145.63;64.74;39378.22;5007388;28;20076;-68
2023/11/01 03:10:08;;;;;;;22.23;15.93;;;;;;;-145.63;64.86;39339.13;5023249;28;20368;-68
2023/11/01 03:12:33;;;;;;;22.02;15.45;;;;;;;-145.63;64.76;39354.75;5003364;28;20041;-68
2023/11/01 03:14:59;;;;;;;21.08;15.25;;;;;;;-145.63;64.92;39356.72;5018617;28;20034;-67
2023/11/01 03:17:25;;;;;;;23.17;16.05;;;;;;;-145.63;65.42;39343.03;5011845;28;20026;-67
2023/11/01 03:19:50;;;;;;;21.58;16.10;;;;;;;-145.63;64.98;39309.78;5009105;28;20222;-67
2023/11/01 03:22:16;;;;;;;22.27;15.75;;;;;;;-145.63;65.57;39368.44;5021887;28;20060;-67
2023/11/01 03:24:42;;;;;;;25.75;16.33;;;;;;;-145.63;65.17;39305.88;5023056;28;20218;-68
2023/11/01 03:27:07;;;;;;;21.50;15.48;;;;;;;-145.63;65.34;39339.13;5007562;28;20030;-67
2023/11/01 03:29:33;;;;;;;23.10;16.25;;;;;;;-145.63;65.25;39374.31;5014984;28;20029;-66
2023/11/01 03:31:59;;;;;;;23.30;15.30;;;;;;;-145.63;64.91;39360.63;5016299;28;20101;-66
2023/11/01 03:34:25;;;;;;;26.65;15.77;;;;;;;-145.63;65.13;39335.19;5005427;28;20018;-67
2023/11/01 03:36:50;;;;;;;22.10;14.77;;;;;;;-145.63;65.10;39364.53;5023019;28;20080;-67
2023/11/01 03:39:17;;;;;;;22.88;15.45;;;;;;;-145.63;65.08;39343.03;5005990;28;20030;-67
2023/11/01 03:41:44;;;;;;;20.48;16.05;;;;;;;-145.63;65.65;39364.53;5028310;28;20045;-67
2023/11/01 03:44:10;;;;;;;20.88;15.88;;;;;;;-145.63;65.68;39378.22;5023005;28;20033;-67
2023/11/01 03:46:36;;;;;;;25.50;16.67;;;;;;;-145.63;65.53;39296.09;5019729;28;20030;-67
2023/11/01 03:49:02;;;;;;;20.95;15.85;;;;;;;-145.63;65.79;39360.63;5015585;28;20022;-68
2023/11/01 03:51:28;;;;;;;26.10;16.05;;;;;;;-145.63;65.70;39399.75;5026163;28;20183;-68
2023/11/01 03:53:54;;;;;;;20.13;14.60;;;;;;;-145.63;65.47;39329.34;5015625;28;20061;-68
2023/11/01 03:56:21;;;;;;;21.48;15.98;;;;;;;-145.63;65.50;39344.97;5011843;28;20050;-68
2023/11/01 03:58:47;;;;;;;22.85;15.95;;;;;;;-145.63;65.60;39352.81;5010433;28;20026;-68
2023/11/01 04:01:13;;;;;;;22.90;15.95;;;;;;;-145.63;65.93;39346.94;5013880;28;20026;-67
2023/11/01 04:03:38;;;;;;;21.67;15.52;;;;;;;-145.63;65.82;39339.13;5007065;28;20030;-68
2023/11/01 04:06:04;;;;;;;22.38;15.40;;;;;;;-145.63;65.54;39341.06;5054073;28;20034;-68
2023/11/01 04:08:30;;;;;;;27.65;16.80;;;;;;;-145.63;65.28;39364.53;5017533;28;20030;-68
2023/11/01 04:10:56;;;;;;;25.55;16.45;;;;;;;-145.63;65.94;39370.41;5019153;28;20049;-67
2023/11/01 04:13:22;;;;;;;21.35;15.75;;;;;;;-145.63;65.93;39354.75;5008302;28;20037;-67
2023/11/01 04:15:48;;;;;;;27.38;15.48;;;;;;;-145.63;65.77;39356.72;5026445;28;20030;-67
2023/11/01 04:18:13;;;;;;;25.33;16.17;;;;;;;-145.63;65.98;39362.59;5015192;28;20025;-67
2023/11/01 04:20:39;;;;;;;23.77;16.58;;;;;;;-145.63;66.09;39370.41;5019364;28;20037;-67
2023/11/01 04:23:05;;;;;;;22.92;16.42;;;;;;;-145.63;66.28;39366.50;5018963;28;20031;-69
2023/11/01 04:25:32;;;;;;;26.13;17.30;;;;;;;-145.63;66.06;39317.59;5024195;28;20100;-68
2023/11/01 04:27:58;;;;;;;21.63;15.80;;;;;;;-145.63;65.76;39344.97;5026395;28;20014;-67
2023/11/01 04:30:25;;;;;;;20.60;15.15;;;;;;;-145.63;65.93;39352.81;5007187;28;20332;-68
2023/11/01 04:32:50;;;;;;;26.23;16.90;;;;;;;-145.63;65.77;39286.31;5018148;28;20073;-67
2023/11/01 04:35:16;;;;;;;22.05;16.25;;;;;;;-145.63;65.83;39348.88;5016620;28;20030;-67
2023/11/01 04:37:43;;;;;;;23.73;16.42;;;;;;;-145.63;65.85;39376.28;5010100;28;20088;-68
2023/11/01 04:40:11;;;;;;;24.02;17.30;;;;;;;-145.63;65.85;39354.75;5025914;28;20168;-67
2023/11/01 04:42:41;;;;;;;26.52;18.13;;;;;;;-145.63;65.79;39344.97;5023593;28;20038;-67
2023/11/01 04:45:09;;;;;;;24.02;18.60;;;;;;;-145.63;65.47;39344.97;5025080;28;20049;-66
2023/11/01 04:47:35;;;;;;;24.23;17.42;;;;;;;-145.63;65.64;39388.00;5015223;28;20030;-68
2023/11/01 04:50:02;;;;;;;26.23;18.05;;;;;;;-145.63;65.09;39339.13;5023264;28;20032;-67
2023/11/01 04:52:30;;;;;;;23.48;16.77;;;;;;;-145.63;65.44;39344.97;5023845;28;20022;-69
2023/11/01 04:54:56;;;;;;;27.10;17.08;;;;;;;-145.63;65.24;39399.75;5005846;28;20234;-69
2023/11/01 04:57:21;;;;;;;27.20;18.75;;;;;;;-145.63;65.60;39157.22;5022883;28;20029;-69
2023/11/01 04:59:47;;;;;;;22.83;18.13;;;;;;;-145.63;65.69;39378.22;5025040;28;20026;-69
2023/11/01 05:02:13;;;;;;;26.20;17.38;;;;;;;-145.63;65.75;39376.28;5025385;28;20052;-68
2023/11/01 05:04:38;;;;;;;25.65;18.55;;;;;;;-145.63;65.67;39325.41;5021265;28;20026;-68
2023/11/01 05:07:04;;;;;;;27.98;17.58;;;;;;;-145.63;65.15;39352.81;5004825;28;20065;-69
2023/11/01 05:09:30;;;;;;;26.45;18.63;;;;;;;-145.63;65.19;39335.19;5021116;28;20452;-69
2023/11/01 05:11:56;;;;;;;25.08;17.10;;;;;;;-145.63;65.26;39384.09;5018095;28;20022;-68
2023/11/01 05:14:22;;;;;;;24.35;18.45;;;;;;;-145.63;65.25;39352.81;5016667;28;20034;-68
2023/11/01 05:16:48;;;;;;;26.70;17.85;;;;;;;-145.63;65.38;39329.34;5009843;28;20034;-67
2023/11/01 05:19:13;;;;;;;26.65;17.55;;;;;;;-145.63;65.27;39344.97;5025521;28;20036;-68
2023/11/01 05:21:42;;;;;;;24.25;17.75;;;;;;;-145.63;64.83;39319.56;5022592;28;20049;-68
2023/11/01 05:24:08;;;;;;;24.33;17.42;;;;;;;-145.63;64.48;39286.31;5024982;28;20037;-68
2023/11/01 05:26:36;;;;;;;22.52;17.65;;;;;;;-145.63;64.92;39030.13;5017541;28;20037;-69
2023/11/01 05:29:03;;;;;;;22.20;16.95;;;;;;;-145.63;64.38;39290.22;5019503;28;20025;-69
2023/11/01 05:31:29;;;;;;;24.88;17.15;;;;;;;-145.63;64.38;39266.75;5023147;28;20053;-68
2023/11/01 05:33:55;;;;;;;27.17;16.58;;;;;;;-145.63;64.40;39313.69;5023657;28;20083;-68
2023/11/01 05:36:21;;;;;;;26.75;16.20;;;;;;;-145.63;64.65;39272.63;5024542;28;20076;-69
2023/11/01 05:38:47;;;;;;;22.63;16.08;;;;;;;-145.63;64.08;39307.81;5019097;28;20025;-69
2023/11/01 05:41:12;;;;;;;25.52;16.83;;;;;;;-145.63;64.24;39280.44;5022968;28;20092;-69
2023/11/01 05:43:39;;;;;;;22.52;15.75;;;;;;;-145.63;63.63;39282.41;5024840;28;21658;-69
2023/11/01 05:46:05;;;;;;;21.15;16.35;;;;;;;-145.63;63.55;39264.78;5024953;28;20029;-68
2023/11/01 05:48:32;;;;;;;20.38;15.32;;;;;;;-145.63;63.49;39280.44;5006871;28;20357;-69
2023/11/01 05:51:02;;;;;;;19.95;14.73;;;;;;;-145.63;63.02;39307.81;5016556;28;20037;-68
2023/11/01 05:53:28;;;;;;;19.73;14.27;;;;;;;-145.63;62.94;39309.78;5016714;28;20209;-67
2023/11/01 05:55:54;;;;;;;21.58;14.82;;;;;;;-145.63;63.20;39321.50;5022692;28;20037;-69
2023/11/01 05:58:20;;;;;;;20.73;14.48;;;;;;;-145.63;62.63;39301.94;5021147;28;20038;-68
2023/11/01 06:00:47;;;;;;;19.98;14.40;;;;;;;-145.63;62.71;39305.88;5004538;28;20163;-68
2023/11/01 06:03:14;;;;;;;25.02;15.52;;;;;;;-145.63;62.48;39258.94;5018758;28;20089;-67
2023/11/01 06:05:40;;;;;;;18.70;14.98;;;;;;;-145.63;62.51;39319.56;5022768;28;20033;-69
2023/11/01 06:08:08;;;;;;;21.88;15.07;;;;;;;-145.63;62.08;39280.44;5014848;28;20037;-67
2023/11/01 06:10:38;;;;;;;25.25;14.68;;;;;;;-145.63;61.88;39278.47;5010811;28;20122;-69
2023/11/01 06:13:07;;;;;;;23.25;14.20;;;;;;;-145.63;61.82;39239.38;5012149;28;20042;-70
2023/11/01 06:15:35;;;;;;;21.50;15.23;;;;;;;-145.63;61.67;38705.50;5014373;28;20053;-69
2023/11/01 06:18:04;;;;;;;20.80;14.77;;;;;;;-145.63;61.68;39253.06;5017280;28;20326;-69
2023/11/01 06:20:34;;;;;;;20.88;15.43;;;;;;;-145.63;61.17;39239.38;5011262;28;20032;-70
2023/11/01 06:23:00;;;;;;;21.65;14.45;;;;;;;-145.63;60.88;39268.72;5015713;28;20026;-70
2023/11/01 06:25:26;;;;;;;22.75;14.98;;;;;;;-145.63;60.70;39247.19;5013395;28;20022;-70
2023/11/01 06:27:52;;;;;;;20.05;14.32;;;;;;;-145.63;60.74;39294.13;5011109;28;20485;-68
2023/11/01 06:30:18;;;;;;;19.83;14.18;;;;;;;-145.63;60.81;39229.59;5010999;28;20030;-70
2023/11/01 06:32:44;;;;;;;22.08;13.68;;;;;;;-145.63;60.82;39251.09;5010819;28;20056;-70
2023/11/01 06:35:10;;;;;;;21.75;13.45;;;;;;;-145.63;60.44;39249.16;5011936;28;20045;-69
2023/11/01 06:37:36;;;;;;;22.10;14.80;;;;;;;-145.63;59.85;39266.75;5010395;28;20026;-68
2023/11/01 06:40:03;;;;;;;22.42;14.10;;;;;;;-145.63;60.21;39262.84;5010180;28;20132;-69
2023/11/01 06:42:31;;;;;;;21.25;14.45;;;;;;;-145.63;60.18;39198.31;5040762;28;20195;-69
2023/11/01 06:44:57;;;;;;;20.15;13.88;;;;;;;-145.63;59.73;39227.63;5017918;28;20053;-69
2023/11/01 06:47:23;;;;;;;20.05;14.25;;;;;;;-145.63;59.37;39233.50;5011787;28;20045;-69
2023/11/01 06:49:49;;;;;;;24.42;14.43;;;;;;;-145.63;59.24;39210.03;5017062;28;20029;-70
2023/11/01 06:52:15;;;;;;;24.58;15.15;;;;;;;-145.63;58.74;39262.84;5022003;28;20202;-70
2023/11/01 06:54:43;;;;;;;20.60;13.77;;;;;;;-145.63;59.17;39249.16;5021134;28;20037;-69
2023/11/01 06:57:11;;;;;;;21.88;14.35;;;;;;;-145.63;58.48;39200.25;5020995;28;20089;-68
2023/11/01 06:59:41;;;;;;;20.15;13.57;;;;;;;-145.63;58.02;39251.09;5023228;28;20078;-69
2023/11/01 07:02:08;;;;;;;21.30;13.18;;;;;;;-145.63;58.11;39213.94;5020364;28;20262;-69
2023/11/01 07:04:34;;;;;;;18.63;12.95;;;;;;;-145.63;57.84;39256.97;5023183;28;20306;-69
2023/11/01 07:07:00;;;;;;;21.80;13.55;;;;;;;-145.63;58.05;39247.19;5022300;28;20037;-69
2023/11/01 07:09:26;;;;;;;16.85;12.93;;;;;;;-145.63;57.68;39229.59;5023535;28;20049;-71
2023/11/01 07:11:52;;;;;;;19.95;12.65;;;;;;;-145.63;58.25;39233.50;5011648;28;20100;-70
2023/11/01 07:14:18;;;;;;;17.85;13.05;;;;;;;-145.63;57.66;39174.84;5014271;28;20042;-70
2023/11/01 07:16:45;;;;;;;17.85;12.43;;;;;;;-145.63;57.74;39225.69;5020852;28;20041;-70
2023/11/01 07:19:14;;;;;;;15.25;11.38;;;;;;;-145.63;57.64;39229.59;5003752;28;20041;-70
2023/11/01 07:21:41;;;;;;;21.40;12.30;;;;;;;-145.63;57.00;39204.16;5018538;28;20033;-70
2023/11/01 07:24:09;;;;;;;20.17;11.80;;;;;;;-145.63;56.51;39208.06;5021890;28;20085;-70
2023/11/01 07:26:36;;;;;;;15.68;11.32;;;;;;;-145.63;56.72;39212.00;5019139;28;20068;-68
2023/11/01 07:29:02;;;;;;;20.80;11.18;;;;;;;-145.63;55.75;39200.25;5017292;28;20045;-70
2023/11/01 07:31:28;;;;;;;17.85;11.98;;;;;;;-145.63;55.90;38924.50;5021431;28;20041;-71
2023/11/01 07:33:55;;;;;;;17.15;10.48;;;;;;;-145.63;56.01;39208.06;5003138;28;20358;-70
2023/11/01 07:36:21;;;;;;;16.52;10.80;;;;;;;-145.63;56.03;39188.53;5019236;28;20045;-69
2023/11/01 07:38:47;;;;;;;16.30;11.05;;;;;;;-145.63;55.88;39172.88;5012113;28;20030;-68
2023/11/01 07:41:14;;;;;;;19.98;10.75;;;;;;;-145.63;55.75;39194.38;5011036;28;20025;-70
2023/11/01 07:43:43;;;;;;;16.13;10.93;;;;;;;-145.63;56.06;39194.38;5010164;28;20081;-74
2023/11/01 07:46:09;;;;;;;17.70;10.45;;;;;;;-145.63;55.16;39206.13;5008879;28;20030;-71
2023/11/01 07:48:36;;;;;;;15.82;9.75;;;;;;;-145.63;54.88;39170.91;5012017;28;20037;-69
2023/11/01 07:51:05;;;;;;;15.18;9.90;;;;;;;-145.63;55.29;39165.06;5013346;28;20060;-68
2023/11/01 07:53:32;;;;;;;21.13;10.82;;;;;;;-145.63;55.56;39180.69;5011970;28;20038;-70
2023/11/01 07:55:58;;;;;;;15.88;10.25;;;;;;;-145.63;55.26;39176.78;5011637;28;20033;-70
2023/11/01 07:58:24;;;;;;;15.70;10.73;;;;;;;-145.63;55.30;39215.91;5012348;28;20034;-69
2023/11/01 08:00:50;;;;;;;15.60;9.82;;;;;;;-145.63;54.93;39227.63;5022728;28;20324;-72
2023/11/01 08:03:16;;;;;;;11.15;9.07;;;;;;;-145.63;55.36;39210.03;5023184;28;20029;-71
2023/11/01 08:05:42;;;;;;;18.95;9.88;;;;;;;-145.63;55.13;39198.31;5013658;28;20024;-69
2023/11/01 08:08:08;;;;;;;13.63;9.75;;;;;;;-145.63;54.86;39196.34;5017032;28;20037;-70
2023/11/01 08:10:34;;;;;;;16.33;9.73;;;;;;;-145.63;54.84;39200.25;5022259;28;20453;-71
2023/11/01 08:13:00;;;;;;;15.70;9.95;;;;;;;-145.63;54.88;39194.38;5002958;28;20084;-69
2023/11/01 08:15:26;;;;;;;14.27;9.43;;;;;;;-145.63;54.79;39266.75;5008139;28;20097;-71
2023/11/01 08:17:52;;;;;;;16.55;9.35;;;;;;;-145.63;54.74;39188.53;5041046;28;20100;-71
2023/11/01 08:20:18;;;;;;;19.20;9.93;;;;;;;-145.63;55.14;39174.84;5010140;28;20209;-70
2023/11/01 08:22:44;;;;;;;15.48;10.25;;;;;;;-145.63;54.71;39194.38;5022506;28;20063;-71
2023/11/01 08:25:11;;;;;;;13.80;9.77;;;;;;;-145.63;54.36;39133.75;5001709;28;20022;-73
2023/11/01 08:27:37;;;;;;;16.25;8.85;;;;;;;-145.63;54.76;39153.31;5013033;28;20206;-72
2023/11/01 08:30:04;;;;;;;16.08;9.73;;;;;;;-145.63;54.48;39196.34;5015448;28;20045;-69
2023/11/01 08:32:32;;;;;;;15.40;9.05;;;;;;;-145.63;54.19;39145.50;5015198;28;20106;-70
2023/11/01 08:34:58;;;;;;;14.77;9.82;;;;;;;-145.63;54.09;39110.28;5007496;28;20038;-72
2023/11/01 08:37:23;;;;;;;13.93;9.45;;;;;;;-145.63;53.50;39129.84;5019519;28;20130;-70
2023/11/01 08:39:49;;;;;;;17.73;9.20;;;;;;;-145.63;53.42;39094.66;5013584;28;20045;-70
2023/11/01 08:42:15;;;;;;;13.55;9.27;;;;;;;-145.63;53.34;39120.06;5014982;28;20199;-69
2023/11/01 08:44:41;;;;;;;13.50;9.10;;;;;;;-145.63;52.79;39125.94;5019983;28;20042;-72
2023/11/01 08:47:08;;;;;;;13.43;9.10;;;;;;;-145.63;53.42;39065.31;5026362;28;20022;-71
2023/11/01 08:49:34;;;;;;;19.98;9.20;;;;;;;-145.63;53.24;39112.25;5025609;28;20076;-69
2023/11/01 08:51:59;;;;;;;16.35;9.55;;;;;;;-145.63;52.61;39100.50;5026080;28;20026;-72
2023/11/01 08:54:26;;;;;;;18.02;9.25;;;;;;;-145.63;52.08;39063.34;5013466;28;20326;-69
2023/11/01 08:56:52;;;;;;;11.32;8.43;;;;;;;-145.63;52.95;39129.84;5051907;28;20038;-71
2023/11/01 08:59:18;;;;;;;15.70;8.80;;;;;;;-145.63;52.47;39129.84;5025635;28;20029;-70
2023/11/01 09:01:44;;;;;;;17.65;10.10;;;;;;;-145.63;52.21;39157.22;5026393;28;20096;-70
2023/11/01 09:04:09;;;;;;;15.88;8.75;;;;;;;-145.63;52.61;39118.13;5043608;28;20032;-70
2023/11/01 09:06:36;;;;;;;13.45;8.50;;;;;;;-145.63;52.55;39122.03;5033023;28;20057;-69
2023/11/01 09:09:01;;;;;;;17.77;8.93;;;;;;;-145.63;52.63;39155.28;5036723;28;20068;-70
2023/11/01 09:11:28;;;;;;;13.75;8.98;;;;;;;-145.63;52.42;39073.13;5035853;28;20037;-70
2023/11/01 09:13:53;;;;;;;15.27;8.82;;;;;;;-145.63;52.67;39106.38;5012166;28;20041;-70
2023/11/01 09:16:20;;;;;;;15.23;8.90;;;;;;;-145.63;52.19;39120.06;5028892;28;20049;-70
2023/11/01 09:18:45;;;;;;;17.40;8.85;;;;;;;-145.63;51.98;39106.38;5013954;28;20030;-71
2023/11/01 09:21:11;;;;;;;14.38;8.85;;;;;;;-145.63;52.13;39090.75;5017062;28;20057;-71
2023/11/01 09:23:37;;;;;;;17.55;9.38;;;;;;;-145.63;52.04;39178.75;5025235;28;20229;-70
2023/11/01 09:26:03;;;;;;;20.80;13.20;;;;;;;-145.63;52.35;39125.94;5025192;28;20026;-71
2023/11/01 09:28:29;;;;;;;16.38;9.13;;;;;;;-145.63;52.06;39120.06;5023969;28;20026;-72
2023/11/01 09:30:54;;;;;;;16.08;9.02;;;;;;;-145.63;52.03;39135.72;5011229;28;20049;-71
2023/11/01 09:33:20;;;;;;;14.90;9.18;;;;;;;-145.63;52.25;39112.25;5024237;28;20229;-71
2023/11/01 09:35:46;;;;;;;15.35;8.85;;;;;;;-145.63;52.20;39082.91;5010068;28;20061;-71
2023/11/01 09:38:12;;;;;;;11.82;8.88;;;;;;;-145.63;52.05;39096.59;5018681;28;20037;-70
2023/11/01 09:40:37;;;;;;;16.45;10.35;;;;;;;-145.63;52.31;39129.84;5012249;28;20149;-70
2023/11/01 09:43:07;;;;;;;18.00;8.75;;;;;;;-145.63;51.82;39098.56;5012534;28;20053;-69
2023/11/01 09:45:33;;;;;;;13.00;8.63;;;;;;;-145.63;52.04;39108.34;5020318;28;20025;-75
2023/11/01 09:47:59;;;;;;;18.20;8.38;;;;;;;-145.63;52.38;39139.63;5025986;28;20018;-69
2023/11/01 09:50:24;;;;;;;15.57;9.45;;;;;;;-145.63;52.06;39120.06;5011794;28;20114;-68
2023/11/01 09:52:50;;;;;;;16.02;8.48;;;;;;;-145.63;51.76;39112.25;5009215;28;20038;-69
2023/11/01 09:55:16;;;;;;;14.60;8.50;;;;;;;-145.63;51.46;39088.78;5018430;28;20034;-69
2023/11/01 09:57:44;;;;;;;20.55;8.85;;;;;;;-145.63;51.46;39118.13;5013761;28;20069;-70
2023/11/01 10:00:11;;;;;;;16.13;8.43;;;;;;;-145.63;51.31;39114.22;5024644;28;20026;-72
2023/11/01 10:02:38;;;;;;;15.75;8.90;;;;;;;-145.63;51.40;39116.16;5024301;28;20365;-72
2023/11/01 10:05:04;;;;;;;14.52;8.00;;;;;;;-145.63;50.88;39098.56;5020694;28;20037;-70
2023/11/01 10:07:31;;;;;;;14.90;8.38;;;;;;;-145.63;51.38;39112.25;5021983;28;20318;-70
2023/11/01 10:09:56;;;;;;;12.82;8.20;;;;;;;-145.63;51.39;39133.75;5024565;28;20037;-71
2023/11/01 10:12:22;;;;;;;14.25;7.70;;;;;;;-145.63;50.99;39075.09;5007890;28;20249;-70
2023/11/01 10:14:48;;;;;;;14.07;7.95;;;;;;;-145.63;51.01;39106.38;5014339;28;20022;-68
2023/11/01 10:17:13;;;;;;;14.13;7.57;;;;;;;-145.63;50.93;39082.91;5021466;28;20026;-69
2023/11/01 10:19:45;;;;;;;12.48;7.95;;;;;;;-145.63;51.04;39092.69;5015475;28;20045;-72
2023/11/01 10:22:14;;;;;;;11.65;7.10;;;;;;;-145.63;50.47;39100.50;5012162;28;20057;-70
2023/11/01 10:24:43;;;;;;;12.93;7.70;;;;;;;-145.63;50.60;39084.88;5007288;28;20125;-71
2023/11/01 10:27:08;;;;;;;18.30;7.95;;;;;;;-145.63;50.37;39090.75;5009564;28;20028;-70
2023/11/01 10:29:42;;;;;;;20.27;8.25;;;;;;;-145.63;50.55;39088.78;5012601;28;20060;-71
2023/11/01 10:32:10;;;;;;;10.32;7.35;;;;;;;-145.63;50.33;39069.22;5014496;28;20105;-71
2023/11/01 10:34:36;;;;;;;12.75;7.35;;;;;;;-145.63;50.29;39059.44;5023002;28;20214;-72
2023/11/01 10:37:04;;;;;;;12.80;7.38;;;;;;;-145.63;49.79;39055.53;5023826;28;20050;-70
2023/11/01 10:39:33;;;;;;;14.57;7.18;;;;;;;-145.63;49.75;39075.09;5008018;28;20030;-72
2023/11/01 10:41:58;;;;;;;14.63;7.80;;;;;;;-145.63;49.55;39065.31;5016433;28;20218;-69
2023/11/01 10:44:25;;;;;;;12.05;7.78;;;;;;;-145.63;49.77;39123.97;5022014;28;20025;-69
2023/11/01 10:46:52;;;;;;;19.90;7.28;;;;;;;-145.63;49.82;39061.41;5023017;28;20101;-72
2023/11/01 10:49:19;;;;;;;15.15;7.88;;;;;;;-145.63;49.45;39073.13;5018723;28;20110;-72
2023/11/01 10:51:45;;;;;;;15.93;7.80;;;;;;;-145.63;49.25;39065.31;5023396;28;20128;-72
2023/11/01 10:54:12;;;;;;;13.88;7.70;;;;;;;-145.63;49.02;39077.06;5023287;28;20037;-71
2023/11/01 10:56:38;;;;;;;12.55;7.80;;;;;;;-145.63;48.93;39041.84;5023524;28;20048;-70
2023/11/01 10:59:29;;;;;;;13.75;7.97;;;;;;;-145.63;49.00;39034.03;5020954;28;20091;-70
2023/11/01 11:02:00;;;;;;;10.80;6.85;;;;;;;-145.63;48.71;39063.34;5022229;28;20033;-69